OAS8535 SKRG-SKBO
Flight info
| Callsign | OAS8535 |
|---|---|
| Flight time | 0h 25m |
| Altitude | 19000 |
| Route | ISVAT2B ISVAT ISVAT5E |
| Aircraft | B738/M-SDE2E3FGHIRWXY/LB1 |
Departure
| Time | 2026-05-09 22:36 |
|---|---|
| Airport | Jose Maria Córdova International Airport (SKRG) |
Arrival
| Time | 2026-05-09 23:02 |
|---|---|
| Airport | El Dorado International Airport (SKBO) |
| Time | Latitude | Longitude | Altitude | Speed | Heading |
|---|---|---|---|---|---|
| 2026-05-09 22:11 | 6.17056 | -75.42698 | 7033 ft | 0 kts | 295° |
| 2026-05-09 22:24 | 6.17056 | -75.42697 | 7033 ft | 0 kts | 295° |
| 2026-05-09 22:24 | 6.17052 | -75.42688 | 7033 ft | 2 kts | 300° |
| 2026-05-09 22:24 | 6.17040 | -75.42673 | 7033 ft | 3 kts | 319° |
| 2026-05-09 22:24 | 6.17023 | -75.42662 | 7033 ft | 3 kts | 338° |
| 2026-05-09 22:25 | 6.17003 | -75.42658 | 7033 ft | 3 kts | 357° |
| 2026-05-09 22:25 | 6.16983 | -75.42660 | 7033 ft | 3 kts | 14° |
| 2026-05-09 22:25 | 6.16971 | -75.42664 | 7033 ft | 0 kts | 25° |
| 2026-05-09 22:28 | 6.16972 | -75.42664 | 7033 ft | 0 kts | 25° |
| 2026-05-09 22:28 | 6.16982 | -75.42659 | 7033 ft | 4 kts | 25° |
| 2026-05-09 22:29 | 6.17013 | -75.42643 | 7033 ft | 5 kts | 33° |
| 2026-05-09 22:29 | 6.17029 | -75.42609 | 7033 ft | 5 kts | 93° |
| 2026-05-09 22:29 | 6.16998 | -75.42572 | 7033 ft | 11 kts | 148° |
| 2026-05-09 22:29 | 6.16922 | -75.42526 | 7033 ft | 12 kts | 148° |
| 2026-05-09 22:30 | 6.16847 | -75.42487 | 7033 ft | 12 kts | 172° |
| 2026-05-09 22:30 | 6.16748 | -75.42486 | 7033 ft | 14 kts | 180° |
| 2026-05-09 22:30 | 6.16663 | -75.42485 | 7033 ft | 10 kts | 180° |
| 2026-05-09 22:30 | 6.16608 | -75.42485 | 7033 ft | 6 kts | 180° |
| 2026-05-09 22:31 | 6.16564 | -75.42485 | 7033 ft | 9 kts | 180° |
| 2026-05-09 22:31 | 6.16476 | -75.42484 | 7033 ft | 16 kts | 179° |
| 2026-05-09 22:31 | 6.16346 | -75.42483 | 7033 ft | 21 kts | 179° |
| 2026-05-09 22:31 | 6.16199 | -75.42481 | 7033 ft | 20 kts | 179° |
| 2026-05-09 22:32 | 6.16078 | -75.42480 | 7033 ft | 15 kts | 179° |
| 2026-05-09 22:32 | 6.15981 | -75.42479 | 7033 ft | 14 kts | 179° |
| 2026-05-09 22:32 | 6.15911 | -75.42479 | 7033 ft | 16 kts | 179° |
| 2026-05-09 22:32 | 6.15787 | -75.42478 | 7033 ft | 19 kts | 179° |
| 2026-05-09 22:33 | 6.15647 | -75.42477 | 7033 ft | 21 kts | 179° |
| 2026-05-09 22:33 | 6.15500 | -75.42476 | 7033 ft | 19 kts | 180° |
| 2026-05-09 22:33 | 6.15381 | -75.42475 | 7033 ft | 14 kts | 180° |
| 2026-05-09 22:33 | 6.15297 | -75.42475 | 7033 ft | 10 kts | 180° |
| 2026-05-09 22:34 | 6.15210 | -75.42474 | 7033 ft | 15 kts | 180° |
| 2026-05-09 22:34 | 6.15086 | -75.42474 | 7033 ft | 20 kts | 179° |
| 2026-05-09 22:34 | 6.14979 | -75.42473 | 7033 ft | 12 kts | 179° |
| 2026-05-09 22:34 | 6.14919 | -75.42455 | 7033 ft | 8 kts | 143° |
| 2026-05-09 22:35 | 6.14904 | -75.42410 | 7033 ft | 8 kts | 89° |
| 2026-05-09 22:35 | 6.14911 | -75.42347 | 7033 ft | 9 kts | 67° |
| 2026-05-09 22:35 | 6.14947 | -75.42309 | 7033 ft | 6 kts | 15° |
| 2026-05-09 22:35 | 6.15060 | -75.42303 | 7033 ft | 41 kts | 359° |
| 2026-05-09 22:36 | 6.15559 | -75.42306 | 7033 ft | 101 kts | 359° |
| 2026-05-09 22:36 | 6.16448 | -75.42312 | 7033 ft | 153 kts | 359° |
| 2026-05-09 22:36 | 6.17597 | -75.42336 | 7352 ft | 170 kts | 357° |
| 2026-05-09 22:36 | 6.18841 | -75.42413 | 7813 ft | 186 kts | 357° |
| 2026-05-09 22:37 | 6.20115 | -75.42384 | 8585 ft | 182 kts | 9° |
| 2026-05-09 22:37 | 6.21274 | -75.41825 | 9032 ft | 197 kts | 41° |
| 2026-05-09 22:37 | 6.21961 | -75.40561 | 9303 ft | 216 kts | 75° |
| 2026-05-09 22:37 | 6.22195 | -75.39081 | 9960 ft | 215 kts | 85° |
| 2026-05-09 22:38 | 6.22041 | -75.37566 | 10426 ft | 225 kts | 110° |
| 2026-05-09 22:38 | 6.21158 | -75.36264 | 10961 ft | 229 kts | 131° |
| 2026-05-09 22:38 | 6.20070 | -75.35091 | 11527 ft | 232 kts | 131° |
| 2026-05-09 22:39 | 6.17869 | -75.32652 | 12547 ft | 242 kts | 133° |
| 2026-05-09 22:39 | 6.16523 | -75.31540 | 12809 ft | 261 kts | 146° |
| 2026-05-09 22:39 | 6.14865 | -75.30612 | 13037 ft | 280 kts | 153° |
| 2026-05-09 22:40 | 6.11057 | -75.28977 | 13611 ft | 313 kts | 158° |
| 2026-05-09 22:40 | 6.09000 | -75.28173 | 14082 ft | 321 kts | 159° |
| 2026-05-09 22:40 | 6.06908 | -75.27354 | 14666 ft | 324 kts | 158° |
| 2026-05-09 22:40 | 6.04774 | -75.26516 | 15030 ft | 335 kts | 158° |
| 2026-05-09 22:41 | 6.02592 | -75.25654 | 15597 ft | 336 kts | 158° |
| 2026-05-09 22:41 | 6.00416 | -75.24794 | 16186 ft | 338 kts | 158° |
| 2026-05-09 22:41 | 5.98219 | -75.23923 | 16669 ft | 341 kts | 158° |
| 2026-05-09 22:41 | 5.95997 | -75.23042 | 17164 ft | 345 kts | 158° |
| 2026-05-09 22:42 | 5.93732 | -75.22142 | 17376 ft | 357 kts | 158° |
| 2026-05-09 22:42 | 5.91392 | -75.21213 | 17617 ft | 367 kts | 158° |
| 2026-05-09 22:42 | 5.89037 | -75.20278 | 18131 ft | 367 kts | 158° |
| 2026-05-09 22:42 | 5.86643 | -75.19326 | 18711 ft | 366 kts | 158° |
| 2026-05-09 22:43 | 5.84259 | -75.18378 | 19043 ft | 368 kts | 158° |
| 2026-05-09 22:43 | 5.81889 | -75.17436 | 19122 ft | 366 kts | 158° |
| 2026-05-09 22:43 | 5.79526 | -75.16497 | 19127 ft | 365 kts | 158° |
| 2026-05-09 22:43 | 5.77161 | -75.15557 | 19124 ft | 365 kts | 158° |
| 2026-05-09 22:44 | 5.74819 | -75.14626 | 19123 ft | 365 kts | 158° |
| 2026-05-09 22:44 | 5.72451 | -75.13686 | 19122 ft | 365 kts | 158° |
| 2026-05-09 22:44 | 5.70084 | -75.12745 | 19122 ft | 365 kts | 158° |
| 2026-05-09 22:44 | 5.67739 | -75.11790 | 19124 ft | 365 kts | 157° |
| 2026-05-09 22:45 | 5.65387 | -75.10820 | 19122 ft | 365 kts | 157° |
| 2026-05-09 22:45 | 5.63046 | -75.09854 | 19120 ft | 365 kts | 157° |
| 2026-05-09 22:45 | 5.60695 | -75.08884 | 19127 ft | 364 kts | 157° |
| 2026-05-09 22:45 | 5.58346 | -75.07916 | 19138 ft | 365 kts | 157° |
| 2026-05-09 22:46 | 5.56005 | -75.06951 | 19147 ft | 365 kts | 157° |
| 2026-05-09 22:46 | 5.53650 | -75.05980 | 19154 ft | 365 kts | 157° |
| 2026-05-09 22:46 | 5.51302 | -75.05013 | 19162 ft | 365 kts | 157° |
| 2026-05-09 22:47 | 5.46605 | -75.03077 | 19171 ft | 365 kts | 157° |
| 2026-05-09 22:47 | 5.44244 | -75.02104 | 19170 ft | 365 kts | 157° |
| 2026-05-09 22:47 | 5.41901 | -75.01139 | 19163 ft | 364 kts | 157° |
| 2026-05-09 22:47 | 5.39557 | -75.00174 | 19156 ft | 364 kts | 157° |
| 2026-05-09 22:48 | 5.37239 | -74.99204 | 19141 ft | 359 kts | 157° |
| 2026-05-09 22:48 | 5.34954 | -74.98237 | 19130 ft | 355 kts | 157° |
| 2026-05-09 22:48 | 5.32687 | -74.97277 | 19128 ft | 353 kts | 157° |
| 2026-05-09 22:48 | 5.30425 | -74.96318 | 19123 ft | 353 kts | 157° |
| 2026-05-09 22:49 | 5.28180 | -74.95367 | 18939 ft | 350 kts | 157° |
| 2026-05-09 22:49 | 5.25948 | -74.94421 | 18754 ft | 344 kts | 157° |
| 2026-05-09 22:49 | 5.23769 | -74.93498 | 18572 ft | 337 kts | 157° |
| 2026-05-09 22:49 | 5.21709 | -74.92433 | 18384 ft | 329 kts | 144° |
| 2026-05-09 22:50 | 5.20016 | -74.90933 | 18064 ft | 326 kts | 133° |
| 2026-05-09 22:50 | 5.18647 | -74.89095 | 17516 ft | 331 kts | 119° |
| 2026-05-09 22:50 | 5.17503 | -74.87109 | 17367 ft | 325 kts | 120° |
| 2026-05-09 22:50 | 5.16378 | -74.85158 | 17242 ft | 324 kts | 120° |
| 2026-05-09 22:51 | 5.15255 | -74.83211 | 17202 ft | 324 kts | 119° |
| 2026-05-09 22:51 | 5.14117 | -74.81233 | 17215 ft | 327 kts | 120° |
| 2026-05-09 22:51 | 5.12977 | -74.79252 | 17222 ft | 332 kts | 120° |
| 2026-05-09 22:51 | 5.11818 | -74.77242 | 17225 ft | 331 kts | 119° |
| 2026-05-09 22:52 | 5.10677 | -74.75259 | 17232 ft | 329 kts | 119° |
| 2026-05-09 22:52 | 5.09530 | -74.73267 | 17245 ft | 329 kts | 119° |
| 2026-05-09 22:52 | 5.08382 | -74.71273 | 17217 ft | 330 kts | 119° |
| 2026-05-09 22:52 | 5.07241 | -74.69290 | 16969 ft | 330 kts | 119° |
| 2026-05-09 22:53 | 5.06124 | -74.67341 | 16723 ft | 330 kts | 120° |
| 2026-05-09 22:53 | 5.04981 | -74.65353 | 16476 ft | 329 kts | 120° |
| 2026-05-09 22:53 | 5.03839 | -74.63373 | 16275 ft | 326 kts | 120° |
| 2026-05-09 22:53 | 5.02706 | -74.61405 | 15987 ft | 324 kts | 119° |
| 2026-05-09 22:54 | 5.01585 | -74.59459 | 15682 ft | 321 kts | 119° |
| 2026-05-09 22:54 | 5.00459 | -74.57500 | 15372 ft | 319 kts | 120° |
| 2026-05-09 22:54 | 4.99352 | -74.55581 | 15065 ft | 317 kts | 121° |
| 2026-05-09 22:54 | 4.98256 | -74.53682 | 14768 ft | 315 kts | 120° |
| 2026-05-09 22:55 | 4.97013 | -74.51845 | 14304 ft | 319 kts | 125° |
| 2026-05-09 22:55 | 4.95716 | -74.50046 | 13982 ft | 317 kts | 125° |
| 2026-05-09 22:55 | 4.94422 | -74.48257 | 13678 ft | 315 kts | 125° |
| 2026-05-09 22:55 | 4.93155 | -74.46504 | 13383 ft | 313 kts | 126° |
| 2026-05-09 22:56 | 4.91871 | -74.44728 | 13082 ft | 311 kts | 126° |
| 2026-05-09 22:56 | 4.90607 | -74.42980 | 12713 ft | 311 kts | 126° |
| 2026-05-09 22:56 | 4.89350 | -74.41214 | 12398 ft | 310 kts | 126° |
| 2026-05-09 22:56 | 4.88121 | -74.39460 | 12157 ft | 306 kts | 126° |
| 2026-05-09 22:57 | 4.86849 | -74.37769 | 12050 ft | 297 kts | 126° |
| 2026-05-09 22:57 | 4.85629 | -74.36160 | 11994 ft | 282 kts | 127° |
| 2026-05-09 22:57 | 4.84481 | -74.34647 | 11969 ft | 264 kts | 126° |
| 2026-05-09 22:57 | 4.83399 | -74.33220 | 11962 ft | 251 kts | 127° |
| 2026-05-09 22:58 | 4.82380 | -74.31876 | 11961 ft | 234 kts | 127° |
| 2026-05-09 22:58 | 4.81389 | -74.30567 | 11708 ft | 232 kts | 127° |
| 2026-05-09 22:58 | 4.80430 | -74.29302 | 11417 ft | 231 kts | 127° |
| 2026-05-09 22:58 | 4.79471 | -74.28037 | 11149 ft | 226 kts | 127° |
| 2026-05-09 22:59 | 4.78528 | -74.26792 | 10847 ft | 222 kts | 126° |
| 2026-05-09 22:59 | 4.77583 | -74.25546 | 10546 ft | 218 kts | 126° |
| 2026-05-09 22:59 | 4.76696 | -74.24375 | 10280 ft | 208 kts | 126° |
| 2026-05-09 22:59 | 4.75836 | -74.23241 | 9988 ft | 196 kts | 126° |
| 2026-05-09 23:00 | 4.75042 | -74.22193 | 9727 ft | 185 kts | 126° |
| 2026-05-09 23:00 | 4.74535 | -74.21523 | 9604 ft | 176 kts | 126° |
| 2026-05-09 23:00 | 4.73816 | -74.20574 | 9353 ft | 166 kts | 128° |
| 2026-05-09 23:00 | 4.72904 | -74.19370 | 9048 ft | 162 kts | 126° |
| 2026-05-09 23:01 | 4.72229 | -74.18480 | 8810 ft | 157 kts | 128° |
| 2026-05-09 23:01 | 4.71786 | -74.17895 | 8666 ft | 162 kts | 127° |
| 2026-05-09 23:01 | 4.71102 | -74.17008 | 8450 ft | 159 kts | 126° |
| 2026-05-09 23:01 | 4.70480 | -74.16165 | 8368 ft | 136 kts | 129° |
| 2026-05-09 23:02 | 4.70073 | -74.15637 | 8368 ft | 65 kts | 126° |
| 2026-05-09 23:02 | 4.69875 | -74.15381 | 8368 ft | 30 kts | 126° |
| 2026-05-09 23:02 | 4.69767 | -74.15230 | 8368 ft | 24 kts | 122° |
| 2026-05-09 23:02 | 4.69724 | -74.15104 | 8368 ft | 12 kts | 97° |
| 2026-05-09 23:03 | 4.69717 | -74.15043 | 8368 ft | 6 kts | 97° |
| 2026-05-09 23:03 | 4.69714 | -74.15016 | 8368 ft | 2 kts | 97° |
| 2026-05-09 23:03 | 4.69713 | -74.15013 | 8368 ft | 0 kts | 97° |
| 2026-05-09 23:03 | 4.69711 | -74.14999 | 8368 ft | 4 kts | 97° |
| 2026-05-09 23:04 | 4.69706 | -74.14954 | 8368 ft | 9 kts | 96° |
| 2026-05-09 23:04 | 4.69701 | -74.14909 | 8368 ft | 5 kts | 96° |
| 2026-05-09 23:04 | 4.69702 | -74.14863 | 8368 ft | 7 kts | 55° |
| 2026-05-09 23:04 | 4.69744 | -74.14828 | 8368 ft | 6 kts | 37° |
| 2026-05-09 23:05 | 4.69789 | -74.14791 | 8368 ft | 10 kts | 39° |
| 2026-05-09 23:05 | 4.69832 | -74.14757 | 8368 ft | 7 kts | 38° |
| 2026-05-09 23:05 | 4.69866 | -74.14731 | 8368 ft | 7 kts | 37° |
| 2026-05-09 23:05 | 4.69912 | -74.14695 | 8368 ft | 9 kts | 37° |
| 2026-05-09 23:06 | 4.69963 | -74.14653 | 8368 ft | 8 kts | 40° |
| 2026-05-09 23:06 | 4.70001 | -74.14621 | 8368 ft | 5 kts | 39° |
| 2026-05-09 23:06 | 4.70024 | -74.14585 | 8368 ft | 5 kts | 109° |
| 2026-05-09 23:06 | 4.70012 | -74.14567 | 8368 ft | 5 kts | 127° |
| 2026-05-09 23:07 | 4.69987 | -74.14532 | 8368 ft | 7 kts | 124° |
| 2026-05-09 23:07 | 4.69958 | -74.14489 | 8368 ft | 7 kts | 124° |
| 2026-05-09 23:07 | 4.69938 | -74.14454 | 8368 ft | 6 kts | 115° |
| 2026-05-09 23:07 | 4.69926 | -74.14432 | 8368 ft | 1 kts | 124° |
| 2026-05-09 23:08 | 4.69913 | -74.14413 | 8368 ft | 6 kts | 124° |
| 2026-05-09 23:08 | 4.69907 | -74.14404 | 8368 ft | 2 kts | 124° |
| 2026-05-09 23:08 | 4.69891 | -74.14395 | 8368 ft | 4 kts | 181° |
| 2026-05-09 23:08 | 4.69871 | -74.14401 | 8368 ft | 3 kts | 216° |
| 2026-05-09 23:09 | 4.69865 | -74.14406 | 8368 ft | 2 kts | 230° |
| 2026-05-09 23:09 | 4.69859 | -74.14416 | 8368 ft | 3 kts | 238° |
| 2026-05-09 23:09 | 4.69851 | -74.14428 | 8368 ft | 0 kts | 236° |